Time;durP1;ratioP1;P1;durP2;ratioP2;P2;SDS_P1;SDS_P2;PMS_P1;PMS_P2;Temp;Humidity;BMP_temperature;BMP_pressure;BME280_temperature;BME280_humidity;BME280_pressure;Samples;Min_cycle;Max_cycle;Signal;HPM_P1;HPM_P2
2023/10/26 00:02:16;;;;;;;4.47;3.17;;;;;;;10.01;90.70;100702.19;5024202;28;20513;-72
2023/10/26 00:04:44;;;;;;;6.80;3.90;;;;;;;9.92;88.98;100701.91;5019019;28;20060;-71
2023/10/26 00:07:17;;;;;;;8.85;4.38;;;;;;;9.92;88.72;100703.59;5018904;28;20601;-71
2023/10/26 00:09:44;;;;;;;;;;;;;;;9.87;89.54;100706.03;5023630;28;20078;-71
2023/10/26 00:12:19;;;;;;;6.30;4.72;;;;;;;9.90;90.79;100713.03;5021239;28;20027;-73
2023/10/26 00:14:47;;;;;;;8.68;4.70;;;;;;;9.86;89.96;100715.50;5024826;28;20053;-71
2023/10/26 00:17:18;;;;;;;10.02;5.50;;;;;;;9.84;90.90;100717.16;5022171;28;20085;-72
2023/10/26 00:19:47;;;;;;;7.45;4.22;;;;;;;9.82;92.09;100729.13;5023491;28;20058;-72
2023/10/26 00:22:17;;;;;;;6.47;4.18;;;;;;;9.78;94.00;100729.00;5021522;28;20507;-72
2023/10/26 00:24:48;;;;;;;8.38;3.85;;;;;;;9.71;92.99;100724.47;5025726;28;20045;-72
2023/10/26 00:27:17;;;;;;;6.90;4.13;;;;;;;9.70;94.84;100730.47;5020879;28;20045;-71
2023/10/26 00:29:50;;;;;;;6.60;3.60;;;;;;;9.72;95.32;100742.59;5017918;28;20060;-71
2023/10/26 00:32:19;;;;;;;6.20;4.00;;;;;;;9.72;95.78;100742.59;5021530;28;20671;-71
2023/10/26 00:34:52;;;;;;;5.45;3.38;;;;;;;9.72;96.14;100741.75;5017464;28;20054;-71
2023/10/26 00:37:25;;;;;;;5.40;3.03;;;;;;;9.76;99.49;100746.19;5016762;28;20052;-72
2023/10/26 00:39:54;;;;;;;7.25;4.10;;;;;;;9.77;100.00;100756.53;5022143;28;20050;-72
2023/10/26 00:42:22;;;;;;;7.63;4.72;;;;;;;9.79;100.00;100754.91;5020276;28;20049;-70
2023/10/26 00:44:57;;;;;;;4.82;3.67;;;;;;;9.79;100.00;100770.41;5023089;28;20056;-70
2023/10/26 00:47:26;;;;;;;5.50;3.33;;;;;;;9.81;100.00;100779.09;5023424;28;20049;-69
2023/10/26 00:49:55;;;;;;;5.28;3.05;;;;;;;9.80;100.00;100779.94;5023632;28;20103;-70
2023/10/26 00:52:28;;;;;;;4.10;2.75;;;;;;;9.76;100.00;100775.47;5021692;28;20053;-70
2023/10/26 00:54:56;;;;;;;;;;;;;;;9.73;100.00;100784.81;5026365;28;20049;-71
2023/10/26 00:57:27;;;;;;;4.60;2.70;;;;;;;9.71;100.00;100789.97;5022907;28;19928;-71
2023/10/26 00:59:56;;;;;;;4.72;2.78;;;;;;;9.68;100.00;100797.59;5021844;28;20061;-71
2023/10/26 01:02:27;;;;;;;5.07;2.40;;;;;;;9.63;100.00;100799.16;5026660;28;20586;-72
2023/10/26 01:04:56;;;;;;;4.68;2.30;;;;;;;9.56;100.00;100799.75;5021307;28;20049;-72
2023/10/26 01:07:26;;;;;;;4.18;2.60;;;;;;;9.46;100.00;100811.50;5024833;28;20064;-72
2023/10/26 01:09:55;;;;;;;3.00;2.40;;;;;;;9.36;100.00;100815.44;5022424;28;20127;-73
2023/10/26 01:12:24;;;;;;;3.97;2.45;;;;;;;9.33;100.00;100817.91;5016235;28;20565;-73
2023/10/26 01:14:53;;;;;;;3.65;2.40;;;;;;;9.35;100.00;100826.59;5025799;28;20037;-73
2023/10/26 01:17:23;;;;;;;3.97;2.78;;;;;;;9.37;100.00;100827.53;5022306;28;20080;-73
2023/10/26 01:19:52;;;;;;;5.72;2.42;;;;;;;9.40;100.00;100831.94;5016714;28;20062;-73
2023/10/26 01:22:22;;;;;;;6.15;2.53;;;;;;;9.41;100.00;100836.25;5018842;28;20041;-72
2023/10/26 01:24:51;;;;;;;3.50;2.17;;;;;;;9.41;100.00;100839.75;5019713;28;20304;-71
2023/10/26 01:27:25;;;;;;;2.72;2.08;;;;;;;9.41;100.00;100850.06;5017706;28;20052;-72
2023/10/26 01:29:55;;;;;;;2.65;1.73;;;;;;;9.41;100.00;100855.22;5011660;28;20057;-71
2023/10/26 01:32:27;;;;;;;3.03;2.03;;;;;;;9.42;100.00;100866.44;5010153;28;20084;-72
2023/10/26 01:34:56;;;;;;;4.90;2.38;;;;;;;9.41;100.00;100864.66;5012886;28;20129;-72
2023/10/26 01:37:27;;;;;;;4.45;1.92;;;;;;;9.36;100.00;100869.66;5009793;28;20050;-72
2023/10/26 01:39:56;;;;;;;4.18;1.80;;;;;;;9.32;100.00;100875.56;5014424;28;20059;-73
2023/10/26 01:42:24;;;;;;;3.75;2.08;;;;;;;9.29;100.00;100880.59;5011138;28;20046;-72
2023/10/26 01:44:53;;;;;;;3.38;1.90;;;;;;;9.29;100.00;100879.72;5017283;28;20601;-72
2023/10/26 01:47:21;;;;;;;4.65;2.03;;;;;;;9.25;100.00;100876.13;5014697;28;20060;-73
2023/10/26 01:49:53;;;;;;;3.30;2.30;;;;;;;9.17;100.00;100875.00;5021846;28;20050;-72
2023/10/26 01:52:22;;;;;;;3.17;1.87;;;;;;;9.12;100.00;100877.41;5018541;28;20077;-72
2023/10/26 01:54:52;;;;;;;6.63;2.40;;;;;;;9.12;100.00;100884.28;5018134;28;20393;-72
2023/10/26 01:57:21;;;;;;;3.83;1.92;;;;;;;9.14;100.00;100892.94;5023376;28;20046;-72
2023/10/26 01:59:55;;;;;;;3.35;2.08;;;;;;;9.17;100.00;100900.81;5014944;28;20212;-72
2023/10/26 02:02:24;;;;;;;3.40;2.10;;;;;;;9.21;100.00;100892.34;5008904;28;20451;-71
2023/10/26 02:04:54;;;;;;;4.13;1.92;;;;;;;9.23;100.00;100901.91;5015109;28;20050;-71
2023/10/26 02:07:23;;;;;;;4.25;2.47;;;;;;;9.20;100.00;100911.22;5017498;28;20057;-71
2023/10/26 02:09:57;;;;;;;6.07;1.73;;;;;;;9.17;100.00;100908.56;5012733;28;20054;-71
2023/10/26 02:12:25;;;;;;;4.30;2.33;;;;;;;9.15;100.00;100917.94;5022933;28;20090;-71
2023/10/26 02:14:54;;;;;;;5.03;2.20;;;;;;;9.18;100.00;100918.03;5017303;28;20107;-73
2023/10/26 02:17:22;;;;;;;2.55;1.80;;;;;;;9.23;100.00;100921.66;5014364;28;20042;-71
2023/10/26 02:19:51;;;;;;;4.30;1.98;;;;;;;9.25;100.00;100925.19;5013410;28;20061;-71
2023/10/26 02:22:20;;;;;;;2.58;2.03;;;;;;;9.27;100.00;100930.41;5021308;28;20045;-70
2023/10/26 02:24:48;;;;;;;3.60;1.83;;;;;;;9.27;100.00;100931.28;5012674;28;20053;-71
2023/10/26 02:27:18;;;;;;;3.03;1.70;;;;;;;9.23;100.00;100942.31;5009911;28;20092;-71
2023/10/26 02:29:47;;;;;;;3.08;1.73;;;;;;;9.18;100.00;100942.16;5009099;28;20060;-71
2023/10/26 02:32:16;;;;;;;2.60;1.30;;;;;;;9.21;100.00;100949.16;5020349;28;20049;-71
2023/10/26 02:34:47;;;;;;;2.67;1.77;;;;;;;9.22;100.00;100948.31;5014537;28;20711;-71
2023/10/26 02:37:17;;;;;;;2.90;1.70;;;;;;;9.23;100.00;100957.81;5023424;28;20062;-70
2023/10/26 02:39:46;;;;;;;3.33;1.63;;;;;;;9.22;100.00;100956.06;5015054;28;20045;-71
2023/10/26 02:42:14;;;;;;;3.17;2.00;;;;;;;9.16;100.00;100946.41;5024641;28;20113;-71
2023/10/26 02:44:51;;;;;;;3.72;1.67;;;;;;;9.10;100.00;100959.06;5023534;28;20068;-71
2023/10/26 02:47:19;;;;;;;3.30;1.60;;;;;;;9.11;100.00;100965.09;5019103;28;20045;-71
2023/10/26 02:49:48;;;;;;;2.80;1.20;;;;;;;9.12;100.00;100969.47;5022747;28;20115;-71
2023/10/26 02:52:19;;;;;;;1.88;1.45;;;;;;;9.14;100.00;100978.13;5018695;28;20053;-71
2023/10/26 02:54:49;;;;;;;2.80;1.52;;;;;;;9.13;100.00;100976.38;5009881;28;20400;-71
2023/10/26 02:57:17;;;;;;;2.47;1.50;;;;;;;9.06;100.00;100979.53;5022667;28;20049;-73
2023/10/26 02:59:46;;;;;;;3.80;1.83;;;;;;;9.01;100.00;100984.53;5014400;28;20056;-72
2023/10/26 03:02:16;;;;;;;2.22;1.48;;;;;;;9.02;100.00;100994.00;5017508;28;20045;-72
2023/10/26 03:04:45;;;;;;;1.67;1.30;;;;;;;9.03;100.00;101003.53;5014229;28;21189;-71
2023/10/26 03:07:20;;;;;;;3.00;1.80;;;;;;;9.04;100.00;101013.03;5011503;28;20053;-71
2023/10/26 03:09:49;;;;;;;4.32;1.73;;;;;;;9.07;100.00;101017.41;5019964;28;20053;-72
2023/10/26 03:12:17;;;;;;;2.85;1.70;;;;;;;9.08;100.00;101016.63;5022154;28;20076;-70
2023/10/26 03:14:47;;;;;;;1.95;1.20;;;;;;;9.05;100.00;101009.63;5019712;28;20049;-68
2023/10/26 03:17:18;;;;;;;4.55;1.35;;;;;;;9.11;100.00;101014.16;5010575;28;20141;-70
2023/10/26 03:19:46;;;;;;;3.25;1.90;;;;;;;9.12;100.00;101018.50;5014833;28;20049;-70
2023/10/26 03:22:15;;;;;;;1.70;1.38;;;;;;;9.12;100.00;101021.09;5012306;28;20057;-70
2023/10/26 03:24:44;;;;;;;2.15;1.48;;;;;;;9.09;100.00;101021.81;5016472;28;20061;-70
2023/10/26 03:27:12;;;;;;;2.80;1.60;;;;;;;9.10;100.00;101022.72;5011367;28;20124;-71
2023/10/26 03:29:41;;;;;;;5.43;1.80;;;;;;;9.07;100.00;101025.16;5015310;28;20061;-71
2023/10/26 03:32:09;;;;;;;4.85;1.80;;;;;;;9.00;100.00;101035.25;5002484;28;20136;-71
2023/10/26 03:34:40;;;;;;;3.08;1.50;;;;;;;8.97;100.00;101035.13;5007616;28;20046;-71
2023/10/26 03:37:11;;;;;;;1.88;1.33;;;;;;;8.98;100.00;101039.47;4994382;28;20703;-71
2023/10/26 03:39:43;;;;;;;2.22;1.35;;;;;;;8.99;100.00;101041.22;4992918;28;20062;-71
2023/10/26 03:42:11;;;;;;;3.03;1.52;;;;;;;9.01;100.00;101043.88;4999942;28;20046;-70
2023/10/26 03:44:40;;;;;;;2.80;1.77;;;;;;;9.04;100.00;101040.53;5009958;28;20488;-70
2023/10/26 03:47:09;;;;;;;4.72;3.17;;;;;;;9.04;100.00;101028.50;4995080;28;20221;-69
2023/10/26 03:49:39;;;;;;;3.90;1.95;;;;;;;9.11;100.00;101035.66;4991977;28;20053;-71
2023/10/26 03:52:08;;;;;;;4.20;2.30;;;;;;;9.14;100.00;101034.91;4991674;28;20046;-70
2023/10/26 03:54:36;;;;;;;7.80;2.20;;;;;;;9.16;100.00;101033.28;4992801;28;20069;-71
2023/10/26 03:57:06;;;;;;;3.58;2.00;;;;;;;9.19;100.00;101038.56;4996810;28;20050;-70
2023/10/26 03:59:34;;;;;;;5.10;2.28;;;;;;;9.20;100.00;101048.94;4994188;28;20430;-69
2023/10/26 04:02:03;;;;;;;6.40;2.45;;;;;;;9.23;100.00;101067.16;4999290;28;20054;-68
2023/10/26 04:04:31;;;;;;;3.63;1.95;;;;;;;9.25;100.00;101067.19;5006648;28;20050;-70
2023/10/26 04:07:02;;;;;;;4.07;2.22;;;;;;;9.26;100.00;101075.84;4991449;28;20054;-71
2023/10/26 04:09:30;;;;;;;2.55;1.40;;;;;;;9.21;100.00;101075.66;4993367;28;20563;-70
2023/10/26 04:11:59;;;;;;;3.08;1.70;;;;;;;9.27;100.00;101083.63;5006103;28;20046;-70
2023/10/26 04:14:30;;;;;;;3.72;2.20;;;;;;;9.27;100.00;101083.63;5006086;28;20046;-70
2023/10/26 04:16:58;;;;;;;5.20;2.33;;;;;;;9.28;100.00;101089.69;4995721;28;20073;-70
2023/10/26 04:19:27;;;;;;;2.65;1.90;;;;;;;9.28;100.00;101081.94;5005886;28;20578;-71
2023/10/26 04:21:55;;;;;;;4.57;2.20;;;;;;;9.28;100.00;101075.09;5001304;28;20061;-72
2023/10/26 04:24:31;;;;;;;5.25;3.28;;;;;;;9.25;100.00;101081.81;5001199;28;20046;-73
2023/10/26 04:26:59;;;;;;;6.03;2.78;;;;;;;9.22;100.00;101092.91;5001853;28;20116;-70
2023/10/26 04:29:28;;;;;;;7.32;2.72;;;;;;;9.23;100.00;101097.25;4999764;28;20058;-72
2023/10/26 04:31:57;;;;;;;4.53;3.05;;;;;;;9.24;100.00;101099.03;5021148;28;20139;-72
2023/10/26 04:34:25;;;;;;;4.10;2.72;;;;;;;9.26;100.00;101101.69;5018471;28;20073;-72
2023/10/26 04:36:59;;;;;;;6.70;3.08;;;;;;;9.27;100.00;101098.25;5023470;28;20049;-71
2023/10/26 04:39:29;;;;;;;10.25;3.30;;;;;;;9.25;100.00;101098.19;5019983;28;21279;-72
2023/10/26 04:41:57;;;;;;;6.55;2.78;;;;;;;9.27;100.00;101099.13;5022143;28;20054;-71
2023/10/26 04:44:26;;;;;;;4.05;2.65;;;;;;;9.26;100.00;101097.38;5019681;28;20103;-73
2023/10/26 04:46:54;;;;;;;3.63;2.58;;;;;;;9.27;100.00;101093.09;5015582;28;20049;-72
2023/10/26 04:49:23;;;;;;;4.78;2.80;;;;;;;9.25;100.00;101099.91;5019739;28;20606;-71
2023/10/26 04:51:52;;;;;;;6.43;2.97;;;;;;;9.23;100.00;101108.47;5025454;28;20065;-71
2023/10/26 04:54:20;;;;;;;3.85;2.42;;;;;;;9.23;100.00;101110.16;5022193;28;20050;-70
2023/10/26 04:56:50;;;;;;;4.88;2.42;;;;;;;9.20;100.00;101107.44;5026245;28;20069;-71
2023/10/26 04:59:19;;;;;;;6.22;3.20;;;;;;;9.15;100.00;101103.81;5018912;28;20483;-72
2023/10/26 05:01:47;;;;;;;5.38;3.40;;;;;;;9.08;100.00;101104.38;5027154;28;20064;-71
2023/10/26 05:04:16;;;;;;;4.57;2.60;;;;;;;9.04;100.00;101115.41;5022231;28;20169;-72
2023/10/26 05:06:44;;;;;;;4.10;2.13;;;;;;;9.01;100.00;101119.59;5021345;28;20061;-70
2023/10/26 05:09:13;;;;;;;3.80;2.42;;;;;;;9.02;100.00;101123.97;5020610;28;20555;-71
2023/10/26 05:11:42;;;;;;;3.20;2.00;;;;;;;9.07;100.00;101134.47;5020942;28;20045;-71
2023/10/26 05:14:12;;;;;;;4.78;2.78;;;;;;;9.11;100.00;101131.19;5022922;28;20057;-71
2023/10/26 05:16:41;;;;;;;9.85;2.35;;;;;;;9.15;100.00;101135.66;5019862;28;20049;-71
2023/10/26 05:19:10;;;;;;;3.28;2.08;;;;;;;9.18;100.00;101147.81;5024675;28;20057;-71
2023/10/26 05:21:38;;;;;;;2.90;2.22;;;;;;;9.22;100.00;101152.28;5023678;28;20045;-71
2023/10/26 05:24:09;;;;;;;5.07;2.45;;;;;;;9.24;100.00;101166.16;5023455;28;20761;-70
2023/10/26 05:26:37;;;;;;;4.07;2.05;;;;;;;9.23;100.00;101165.28;5024092;28;20116;-72
2023/10/26 05:29:06;;;;;;;3.22;1.67;;;;;;;9.25;100.00;101173.06;5023272;28;20049;-71
2023/10/26 05:31:43;;;;;;;3.15;1.90;;;;;;;9.28;100.00;101178.38;5018797;28;20820;-70
2023/10/26 05:34:14;;;;;;;3.90;1.80;;;;;;;9.29;100.00;101185.28;5024486;28;20656;-72
2023/10/26 05:36:42;;;;;;;3.72;1.70;;;;;;;9.30;100.00;101192.25;5019204;28;20164;-71
2023/10/26 05:39:11;;;;;;;3.45;1.85;;;;;;;9.31;100.00;101193.13;5020635;28;20049;-71
2023/10/26 05:41:40;;;;;;;4.47;1.63;;;;;;;9.31;100.00;101199.16;5021312;28;20095;-71
2023/10/26 05:44:08;;;;;;;3.85;1.70;;;;;;;9.32;100.00;101200.03;5020563;28;20060;-71
2023/10/26 05:46:39;;;;;;;3.13;1.77;;;;;;;9.32;100.00;101206.09;5019904;28;20069;-70
2023/10/26 05:49:08;;;;;;;4.47;2.20;;;;;;;9.34;100.00;101214.75;5020165;28;20059;-71
2023/10/26 05:51:36;;;;;;;3.35;2.42;;;;;;;9.35;100.00;101221.72;5024034;28;20052;-71
2023/10/26 05:54:05;;;;;;;3.95;2.55;;;;;;;9.35;100.00;101226.88;5019839;28;20049;-72
2023/10/26 05:56:33;;;;;;;3.88;2.22;;;;;;;9.32;100.00;101226.75;5017134;28;20658;-73
2023/10/26 05:59:02;;;;;;;6.15;2.90;;;;;;;9.27;100.00;101223.06;5021662;28;20049;-71
2023/10/26 06:01:31;;;;;;;3.90;2.55;;;;;;;9.25;100.00;101235.03;5020078;28;20049;-72
2023/10/26 06:04:04;;;;;;;3.10;2.35;;;;;;;9.27;100.00;101238.56;5020759;28;20095;-73
2023/10/26 06:06:32;;;;;;;5.10;2.47;;;;;;;9.28;100.00;101242.94;5026457;28;20048;-73
2023/10/26 06:09:04;;;;;;;5.18;3.03;;;;;;;9.28;100.00;101257.53;5019956;28;20064;-72
2023/10/26 06:11:33;;;;;;;4.22;2.58;;;;;;;9.23;100.00;101263.41;5020573;28;20141;-72
2023/10/26 06:14:02;;;;;;;4.65;2.50;;;;;;;9.23;100.00;101268.56;5020010;28;20127;-72
2023/10/26 06:16:30;;;;;;;3.85;2.38;;;;;;;9.22;100.00;101265.91;5017400;28;20057;-73
2023/10/26 06:19:01;;;;;;;4.55;2.67;;;;;;;9.20;100.00;101263.25;5020164;28;20054;-72
2023/10/26 06:21:29;;;;;;;4.65;2.47;;;;;;;9.18;100.00;101261.41;5020562;28;20053;-72
2023/10/26 06:23:58;;;;;;;8.35;2.40;;;;;;;9.17;100.00;101262.25;5018237;28;20054;-72
2023/10/26 06:26:26;;;;;;;5.30;2.55;;;;;;;9.17;100.00;101259.66;5021077;28;20471;-72
2023/10/26 06:28:55;;;;;;;4.97;3.08;;;;;;;9.19;100.00;101265.78;5020579;28;20050;-73
2023/10/26 06:31:27;;;;;;;4.63;2.50;;;;;;;9.21;100.00;101274.47;5019386;28;20081;-73
2023/10/26 06:33:55;;;;;;;7.43;3.10;;;;;;;9.17;100.00;101268.28;5020560;28;20053;-72
2023/10/26 06:36:25;;;;;;;4.63;2.38;;;;;;;9.18;100.00;101282.06;5022538;28;20046;-73
2023/10/26 06:38:56;;;;;;;5.80;2.47;;;;;;;9.14;100.00;101272.41;5018643;28;20064;-71
2023/10/26 06:41:27;;;;;;;4.43;2.70;;;;;;;9.12;100.00;101280.13;5024376;28;20056;-72
2023/10/26 06:43:56;;;;;;;6.55;3.00;;;;;;;9.12;100.00;101276.66;5022807;28;20148;-72
2023/10/26 06:46:25;;;;;;;5.30;2.60;;;;;;;9.13;100.00;101278.41;5022675;28;20582;-73
2023/10/26 06:48:54;;;;;;;5.40;3.20;;;;;;;9.12;100.00;101272.38;5020534;28;20419;-72
2023/10/26 06:51:24;;;;;;;4.93;2.53;;;;;;;9.13;100.00;101273.25;5018034;28;20053;-71
2023/10/26 06:53:53;;;;;;;4.13;2.78;;;;;;;9.11;100.00;101264.56;5022785;28;20076;-72
2023/10/26 06:56:22;;;;;;;4.25;2.55;;;;;;;9.04;100.00;101265.09;5017646;28;20060;-73
2023/10/26 06:58:50;;;;;;;4.10;2.63;;;;;;;8.99;100.00;101273.53;5016020;28;20060;-72
2023/10/26 07:01:19;;;;;;;3.42;2.47;;;;;;;9.01;100.00;101277.06;5023887;28;20038;-72
2023/10/26 07:03:47;;;;;;;3.58;2.17;;;;;;;9.01;100.00;101271.91;5022783;28;20546;-72
2023/10/26 07:06:22;;;;;;;6.70;2.75;;;;;;;9.01;100.00;101269.31;5019704;28;20049;-73
2023/10/26 07:08:52;;;;;;;6.90;2.88;;;;;;;9.01;100.00;101277.06;5024280;28;20041;-72
2023/10/26 07:11:21;;;;;;;3.15;2.13;;;;;;;9.00;100.00;101275.31;5021689;28;20068;-72
2023/10/26 07:13:49;;;;;;;7.00;2.10;;;;;;;9.01;100.00;101271.03;5025006;28;20136;-72
2023/10/26 07:16:19;;;;;;;4.78;2.50;;;;;;;8.96;100.00;101273.41;5023398;28;20495;-72
2023/10/26 07:18:48;;;;;;;3.33;2.15;;;;;;;8.93;100.00;101273.28;5020635;28;20041;-72
2023/10/26 07:21:16;;;;;;;4.15;2.33;;;;;;;8.93;100.00;101268.13;5026055;28;20068;-73
2023/10/26 07:23:45;;;;;;;4.25;2.75;;;;;;;8.93;100.00;101277.53;5024123;28;20140;-73
2023/10/26 07:26:24;;;;;;;3.50;2.05;;;;;;;8.86;100.00;101281.53;5021050;28;20095;-73
2023/10/26 07:28:55;;;;;;;3.65;2.13;;;;;;;8.83;100.00;101280.53;5019642;28;20046;-72
2023/10/26 07:31:24;;;;;;;2.58;1.95;;;;;;;8.81;100.00;101283.91;5022955;28;20069;-71
2023/10/26 07:33:52;;;;;;;3.15;2.05;;;;;;;8.79;100.00;101285.53;5021106;28;20047;-72
2023/10/26 07:36:23;;;;;;;3.50;1.83;;;;;;;8.75;100.00;101291.38;5022680;28;20041;-72
2023/10/26 07:38:51;;;;;;;5.70;2.10;;;;;;;8.66;100.00;101296.13;5027861;28;20065;-71
2023/10/26 07:41:27;;;;;;;3.92;2.17;;;;;;;8.62;100.00;101312.28;5017948;28;20065;-72
2023/10/26 07:43:55;;;;;;;3.60;2.13;;;;;;;8.64;100.00;101323.56;5022524;28;20144;-72
2023/10/26 07:46:25;;;;;;;3.55;2.05;;;;;;;8.66;100.00;101328.75;5021647;28;20072;-72
2023/10/26 07:48:54;;;;;;;5.75;2.17;;;;;;;8.67;100.00;101331.41;5030183;28;20221;-72
2023/10/26 07:51:22;;;;;;;4.35;2.28;;;;;;;8.68;100.00;101319.41;5021477;28;20057;-71
2023/10/26 07:53:51;;;;;;;3.10;2.05;;;;;;;8.59;100.00;101318.19;5023375;28;20141;-72
2023/10/26 07:56:21;;;;;;;2.63;2.28;;;;;;;8.65;100.00;101330.47;5025356;28;20451;-72
2023/10/26 07:58:50;;;;;;;4.00;2.50;;;;;;;8.68;100.00;101342.63;5020805;28;20176;-72
2023/10/26 08:01:19;;;;;;;5.20;1.52;;;;;;;8.62;100.00;101338.06;5023229;28;20479;-72
2023/10/26 08:03:48;;;;;;;2.65;1.80;;;;;;;8.60;100.00;101340.56;5022553;28;20086;-72
2023/10/26 08:06:17;;;;;;;7.38;2.75;;;;;;;8.53;100.00;101341.09;5019352;28;20077;-73
2023/10/26 08:08:46;;;;;;;3.83;2.13;;;;;;;8.47;100.00;101351.13;5022654;28;20053;-73
2023/10/26 08:11:15;;;;;;;6.55;2.13;;;;;;;8.47;100.00;101353.69;5016759;28;20049;-71
2023/10/26 08:13:45;;;;;;;3.40;1.88;;;;;;;8.46;100.00;101354.53;5024456;28;20049;-72
2023/10/26 08:16:14;;;;;;;2.97;2.10;;;;;;;8.46;100.00;101357.09;5021442;28;20054;-72
2023/10/26 08:18:43;;;;;;;4.18;2.00;;;;;;;8.44;100.00;101361.28;5025139;28;20060;-72
2023/10/26 08:21:12;;;;;;;2.60;1.92;;;;;;;8.40;100.00;101361.94;5016040;28;20532;-72
2023/10/26 08:23:43;;;;;;;5.65;1.88;;;;;;;8.39;100.00;101365.31;5017504;28;20090;-72
2023/10/26 08:26:12;;;;;;;7.00;1.77;;;;;;;8.35;100.00;101368.56;5018614;28;20045;-72
2023/10/26 08:28:41;;;;;;;3.60;1.55;;;;;;;8.32;100.00;101358.97;5023336;28;20045;-72
2023/10/26 08:31:11;;;;;;;2.80;1.77;;;;;;;8.27;100.00;101368.19;5015548;28;20140;-73
2023/10/26 08:33:47;;;;;;;2.38;1.77;;;;;;;8.23;100.00;101365.41;5025225;28;20499;-71
2023/10/26 08:36:16;;;;;;;2.25;1.90;;;;;;;8.15;100.00;101360.75;5021947;28;20050;-72
2023/10/26 08:38:44;;;;;;;2.22;1.65;;;;;;;8.07;100.00;101374.06;5022844;28;20053;-72
2023/10/26 08:41:14;;;;;;;3.40;1.92;;;;;;;8.05;100.00;101378.25;5020133;28;20491;-72
2023/10/26 08:43:47;;;;;;;3.05;1.73;;;;;;;8.03;100.00;101373.03;5024223;28;20813;-73
2023/10/26 08:46:19;;;;;;;5.18;2.45;;;;;;;8.02;100.00;101373.84;5025939;28;20112;-72
2023/10/26 08:48:50;;;;;;;4.50;2.30;;;;;;;8.01;100.00;101382.38;5026956;28;20057;-72
2023/10/26 08:51:18;;;;;;;8.40;2.97;;;;;;;8.02;100.00;101389.31;5020826;28;20103;-73
2023/10/26 08:53:47;;;;;;;4.95;2.10;;;;;;;8.01;100.00;101387.53;5017538;28;20058;-72
2023/10/26 08:56:17;;;;;;;4.55;2.40;;;;;;;8.03;100.00;101398.78;5023244;28;20065;-73
2023/10/26 08:58:45;;;;;;;5.78;2.78;;;;;;;8.03;100.00;101401.38;5017579;28;20057;-72
2023/10/26 09:01:14;;;;;;;6.07;3.35;;;;;;;8.04;100.00;101405.72;5017944;28;20064;-73
2023/10/26 09:03:48;;;;;;;9.85;3.65;;;;;;;8.05;100.00;101407.50;5021912;28;20050;-72
2023/10/26 09:06:17;;;;;;;8.20;3.05;;;;;;;8.04;100.00;101416.03;5021321;28;20176;-72
2023/10/26 09:08:45;;;;;;;6.55;3.45;;;;;;;8.06;100.00;101422.13;5026305;28;20103;-72
2023/10/26 09:11:25;;;;;;;6.30;3.25;;;;;;;8.07;100.00;101429.06;5022110;28;20080;-73
2023/10/26 09:13:54;;;;;;;7.13;3.65;;;;;;;8.08;100.00;101427.38;5021783;28;20120;-72
2023/10/26 09:16:37;;;;;;;6.68;3.47;;;;;;;8.10;100.00;101429.22;5014207;28;20056;-71
2023/10/26 09:19:10;;;;;;;7.10;3.55;;;;;;;8.10;100.00;101424.06;5017924;28;20603;-72
2023/10/26 09:21:52;;;;;;;5.63;3.53;;;;;;;8.12;100.00;101432.75;5017422;28;20100;-72
2023/10/26 09:24:27;;;;;;;7.00;4.00;;;;;;;8.12;100.00;101430.19;5018225;28;20491;-73
2023/10/26 09:26:56;;;;;;;10.13;4.15;;;;;;;8.12;100.00;101432.75;5019959;28;20054;-73
2023/10/26 09:29:37;;;;;;;17.02;3.80;;;;;;;8.08;100.00;101435.09;5022226;28;20053;-73
2023/10/26 09:32:07;;;;;;;10.43;3.75;;;;;;;8.05;100.00;101438.41;5024486;28;20061;-74
2023/10/26 09:34:42;;;;;;;13.30;4.25;;;;;;;8.06;100.00;101447.03;5017388;28;20042;-73
2023/10/26 09:37:12;;;;;;;6.75;4.03;;;;;;;8.06;100.00;101453.06;5021203;28;20053;-73
2023/10/26 09:39:42;;;;;;;7.07;4.30;;;;;;;8.03;100.00;101460.66;5018298;28;20141;-74
2023/10/26 09:42:16;;;;;;;8.85;4.00;;;;;;;8.02;100.00;101466.63;5023895;28;20044;-73
2023/10/26 09:44:45;;;;;;;8.57;4.63;;;;;;;8.03;100.00;101467.50;5018179;28;20050;-73
2023/10/26 09:47:14;;;;;;;8.68;4.10;;;;;;;7.99;100.00;101461.28;5018179;28;20072;-73
2023/10/26 09:49:44;;;;;;;11.88;4.97;;;;;;;8.05;100.00;101482.22;5021544;28;20471;-73
2023/10/26 09:52:15;;;;;;;7.03;3.78;;;;;;;8.07;100.00;101484.91;5025269;28;20033;-72
2023/10/26 09:54:45;;;;;;;6.65;2.63;;;;;;;8.05;100.00;101482.22;5020033;28;20058;-72
2023/10/26 09:57:20;;;;;;;8.07;2.67;;;;;;;8.06;100.00;101486.56;5023996;28;20611;-73
2023/10/26 09:59:58;;;;;;;8.10;3.58;;;;;;;8.02;100.00;101494.97;5021505;28;20050;-73
2023/10/26 10:02:27;;;;;;;9.82;3.35;;;;;;;8.02;100.00;101505.28;5025411;28;20049;-72
2023/10/26 10:04:58;;;;;;;4.82;2.78;;;;;;;8.00;100.00;101512.03;5019336;28;20050;-73
2023/10/26 10:07:44;;;;;;;5.88;2.78;;;;;;;7.97;100.00;101512.78;5015548;28;20127;-71
2023/10/26 10:10:14;;;;;;;7.10;2.75;;;;;;;7.95;100.00;101516.97;5016526;28;20053;-73
2023/10/26 10:12:56;;;;;;;7.57;2.95;;;;;;;7.93;100.00;101515.13;5020098;28;20100;-72
2023/10/26 10:15:41;;;;;;;4.57;2.85;;;;;;;7.90;100.00;101527.81;5019648;28;20057;-72
2023/10/26 10:18:17;;;;;;;6.68;2.58;;;;;;;7.87;100.00;101522.50;5014935;28;20589;-73
2023/10/26 10:20:47;;;;;;;4.53;2.67;;;;;;;7.86;100.00;101520.75;5020685;28;20535;-72
2023/10/26 10:23:32;;;;;;;4.40;2.72;;;;;;;7.82;100.00;101518.81;5017687;28;20640;-72
2023/10/26 10:26:00;;;;;;;6.65;2.97;;;;;;;7.85;100.00;101524.13;5017279;28;20491;-72
2023/10/26 10:28:55;;;;;;;4.78;2.95;;;;;;;7.84;100.00;101523.25;5019003;28;20042;-73
2023/10/26 10:31:43;;;;;;;5.97;2.60;;;;;;;7.79;100.00;101534.09;5015890;28;20061;-72
2023/10/26 10:34:13;;;;;;;7.47;3.15;;;;;;;7.71;100.00;101532.00;5018201;28;20053;-73
2023/10/26 10:37:14;;;;;;;5.00;2.55;;;;;;;7.66;100.00;101538.59;5025592;28;20050;-72
2023/10/26 10:40:12;;;;;;;5.40;2.60;;;;;;;7.69;100.00;101538.75;5017825;28;20050;-72
2023/10/26 10:42:41;;;;;;;3.40;2.17;;;;;;;7.71;100.00;101542.28;5021247;28;20041;-74
2023/10/26 10:45:15;;;;;;;4.72;2.40;;;;;;;7.74;100.00;101546.72;5024662;28;20096;-72
2023/10/26 10:47:48;;;;;;;4.07;2.78;;;;;;;7.76;100.00;101552.84;5032853;28;20475;-73
2023/10/26 10:50:21;;;;;;;6.32;3.05;;;;;;;7.76;100.00;101545.13;5026820;28;20413;-73
2023/10/26 10:53:01;;;;;;;7.43;2.70;;;;;;;7.78;100.00;101551.25;5027426;28;20108;-71
2023/10/26 10:55:36;;;;;;;7.55;2.63;;;;;;;7.79;100.00;101552.13;5026806;28;20087;-75
2023/10/26 10:58:05;;;;;;;6.10;3.10;;;;;;;7.78;100.00;101558.97;5019677;28;20049;-73
2023/10/26 11:00:48;;;;;;;10.75;3.08;;;;;;;7.72;100.00;101554.38;5024383;28;20089;-73
2023/10/26 11:03:19;;;;;;;6.85;3.40;;;;;;;7.75;100.00;101557.13;5025944;28;20539;-73
2023/10/26 11:05:49;;;;;;;5.32;2.80;;;;;;;7.72;100.00;101548.34;5023962;28;20057;-74
2023/10/26 11:08:27;;;;;;;7.90;3.38;;;;;;;7.73;100.00;101551.00;5028290;28;20061;-73
2023/10/26 11:10:55;;;;;;;7.95;3.03;;;;;;;7.79;100.00;101565.00;5024578;28;20060;-73
2023/10/26 11:13:24;;;;;;;6.72;3.28;;;;;;;7.81;100.00;101569.47;5018881;28;20045;-73
2023/10/26 11:16:16;;;;;;;10.10;3.63;;;;;;;7.81;100.00;101565.97;5021637;28;20049;-73
2023/10/26 11:18:44;;;;;;;5.75;3.10;;;;;;;7.85;100.00;101570.50;5025231;28;20628;-73
2023/10/26 11:21:23;;;;;;;9.15;3.70;;;;;;;7.85;100.00;101578.22;5022521;28;20061;-74
2023/10/26 11:23:54;;;;;;;8.27;3.72;;;;;;;7.86;100.00;101574.88;5021765;28;20392;-73
2023/10/26 11:26:22;;;;;;;6.63;3.63;;;;;;;7.85;100.00;101576.53;5016285;28;20050;-73
2023/10/26 11:29:05;;;;;;;8.55;4.00;;;;;;;7.85;100.00;101576.53;5016364;28;20057;-73
2023/10/26 11:31:41;;;;;;;7.05;3.28;;;;;;;7.84;100.00;101573.88;5024125;28;20089;-73
2023/10/26 11:34:11;;;;;;;7.03;3.30;;;;;;;7.85;100.00;101567.91;5025725;28;20053;-73
2023/10/26 11:36:46;;;;;;;5.97;3.15;;;;;;;7.80;100.00;101556.50;5022710;28;20124;-73
2023/10/26 11:39:16;;;;;;;5.78;3.35;;;;;;;7.82;100.00;101560.03;5023138;28;20131;-74
2023/10/26 11:42:04;;;;;;;6.15;3.10;;;;;;;7.84;100.00;101569.63;5023932;28;20061;-73
2023/10/26 11:44:33;;;;;;;8.25;3.80;;;;;;;7.88;100.00;101570.66;5028482;28;20068;-73